Hauptseite
METAR-TAF:

METAR-TAF

Flughäfen :

Flughafen Kos

Kos, Griechenland

Breite: 36-47N, Länge: 027-04E, Höhe: 129 m

Beobachtung

Neuester Wetterbericht von vor 24 Minuten, um 08:20 UTC
Wind 26 kt aus Südost, Böen bis zu 37 kt
Temperatur 20°C
Luftfeuchtigkeit 46%
Luftdruck 1011 hPa
Sichtweite 10 km oder mehr
Leicht bewölkt in der Höhe von 1800 ft

METAR: LGKO 170820Z 14026G37KT 9999 FEW018 20/08 Q1011

Zeit: 11:44 (08:44 UTC)

Prognose

Neuester Wetterbericht von vor 3 Stunden und 44 Minuten, um 05:00 UTC
Gültige Prognose vom 17 um 06 UTC bis 18 um 06 UTC
Wind 20 kt aus Südost, Böen bis zu 30 kt
Sichtweite 10 km oder mehr
Aufgelockert bewölkt in der Höhe von 1800 ft
Aufgelockert bewölkt in der Höhe von 5000 ft
Zeitweise
vom 17 um 06 UTC bis 17 um 24 UTC
Wind 30 kt aus Südost, Böen bis zu 40 kt

TAF: LGKO 170500Z 1706/1806 14020G30KT 9999 SCT018 SCT050 TEMPO 1706/1724 14030G40KT

Wetterbeobachtungen und Prognosen von mehr als 4000 Flughäfen (METAR und TAF Bericht).

Die verfügbaren Stationen werden durch gelbe und rote Markierungen auf der Karte dargestellt.

Führen Sie die Maus auf sie, um den Namen der Station zu sehen.

Darauf klicken, um die Beobachtung von Wetterbeobachtungen und Prognosen zu sehen.

Um die Karte zu ändern : klicken Sie auf den grünen Tasten mit einem schwarzen Kreuz Zum Vergrößern, auf den grünen Button mit einem Gedankenstrich zu verkleinern, oder auf die grünen Pfeile für benachbarte Karten.


METAR-TAF: